Airfield :







YOU CAN JOIN US ON...

 
LOGIN :

Register | Disclaimer

   EN    FR    IT 

 









Legend :    VFR   Marginal VFR   IFR   Intensive IFR   Very Intensive IFR
Visi :
Ceiling :
>= 8 km
>= 3000ft
5 to 8 km
1000 to 3000 ft
1500m to 5 km
500 to 1000 ft
800 to 1500m
200 to 500 ft
< 800m
< 200 ft
Symbols :   Thunderstorms  Fog  Heavy snow  Heavy precipitations  Wind > 20 kt






- Airport Elevation : 22 ft
- IATA code : YDP


CYDP - Nain

CURRENT METAR :
  • 222300Z 26013G19KT 15SM BKN040 BKN130 18/07 A2942 RMK SC7AC1 AC TR LAST STFD OBS/NXT 230800Z SLP965 DENSITY ALT 900FT

EXPIRED METARs :
  • 222200Z 26003KT 230V360 15SM SCT045 BKN070 BKN130 BKN220 10/08 A2938 RMK SC3AC3AS1CI1 AS TR SLP952 DENSITY ALT 100FT
  • 222100Z VRB02KT 15SM SCT080 SCT110 BKN230 10/09 A2935 RMK AC3AC1CS3 SLP941 DENSITY ALT 100FT

Expired Forecast.
CZQX FIR / North America



MET'MAP, your aeronautical weather chart ! - Copyright ORBIFLY December 2007 - Disclaimer

ORBIFLY MET'MAP TEAM :

Programming & Development : Alexandra Zaïnal
Concept & original design : Baudouin d'Aumeries
Assistance for programming : Marc-Olivier Méhu
Technical & hardware support : Manuel Goepfert

Contact : metmap@orbifly.com




SOURCES & CREDITS :

   NOAA